createdAt,value
2019-05-16T00:00:08.475Z,3.57
2019-05-16T00:02:34.200Z,2.47
2019-05-16T00:04:59.755Z,4.33
2019-05-16T00:07:25.304Z,1.90
2019-05-16T00:09:50.873Z,2.83
2019-05-16T00:12:18.395Z,2.50
2019-05-16T00:14:45.071Z,3.27
2019-05-16T00:17:10.602Z,2.97
2019-05-16T00:19:38.077Z,1.80
2019-05-16T00:22:03.563Z,3.77
2019-05-16T00:24:29.217Z,2.67
2019-05-16T00:26:54.847Z,2.60
2019-05-16T00:29:20.382Z,1.90
2019-05-16T00:31:48.645Z,3.70
2019-05-16T00:34:15.275Z,4.77
2019-05-16T00:36:40.914Z,3.00
2019-05-16T00:39:08.424Z,2.23
2019-05-16T00:41:34.137Z,3.13
2019-05-16T00:43:59.780Z,4.43
2019-05-16T00:46:25.296Z,6.93
2019-05-16T00:48:50.835Z,2.03
2019-05-16T00:51:18.294Z,2.50
2019-05-16T00:53:43.881Z,4.27
2019-05-16T00:56:09.730Z,4.20
2019-05-16T00:58:37.800Z,7.10
2019-05-16T01:01:02.882Z,2.53
2019-05-16T01:03:29.078Z,6.33
2019-05-16T01:05:54.759Z,3.73
2019-05-16T01:08:20.291Z,7.37
2019-05-16T01:10:50.906Z,3.57
2019-05-16T01:13:13.615Z,1.80
2019-05-16T01:15:39.213Z,2.17
2019-05-16T01:18:04.739Z,2.70
2019-05-16T01:20:30.379Z,3.30
2019-05-16T01:22:58.061Z,8.03
2019-05-16T01:25:23.651Z,1.70
2019-05-16T01:27:49.284Z,3.33
2019-05-16T01:30:15.001Z,3.90
2019-05-16T01:32:40.662Z,2.03
2019-05-16T01:35:08.342Z,3.50
2019-05-16T01:37:34.093Z,3.90
2019-05-16T01:39:59.675Z,2.63
2019-05-16T01:42:25.792Z,2.57
2019-05-16T01:44:52.780Z,1.50
2019-05-16T01:47:18.667Z,3.53
2019-05-16T01:49:44.187Z,3.93
2019-05-16T01:52:09.740Z,2.47
2019-05-16T01:54:35.326Z,4.07
2019-05-16T01:57:01.104Z,1.50
2019-05-16T01:59:28.411Z,7.63
2019-05-16T02:01:54.219Z,5.07
2019-05-16T02:04:19.777Z,1.83
2019-05-16T02:06:54.280Z,5.50
2019-05-16T02:09:14.040Z,3.30
2019-05-16T02:11:39.642Z,2.13
2019-05-16T02:14:05.393Z,5.00
2019-05-16T02:16:31.109Z,4.23
2019-05-16T02:18:58.745Z,5.13
2019-05-16T02:21:24.443Z,5.33
2019-05-16T02:23:51.703Z,3.80
2019-05-16T02:26:19.214Z,2.70
2019-05-16T02:28:45.111Z,2.00
2019-05-16T02:31:14.781Z,1.43
2019-05-16T02:33:40.603Z,10.67
2019-05-16T02:36:05.836Z,2.43
2019-05-16T02:38:31.837Z,2.10
2019-05-16T02:40:57.868Z,1.50
2019-05-16T02:43:26.176Z,4.87
2019-05-16T02:45:51.967Z,1.93
2019-05-16T02:48:20.943Z,6.70
2019-05-16T02:50:45.363Z,3.13
2019-05-16T02:53:12.775Z,3.00
2019-05-16T02:55:40.937Z,5.63
2019-05-16T02:58:06.181Z,1.30
2019-05-16T03:00:33.023Z,5.03
2019-05-16T03:03:01.197Z,2.67
2019-05-16T03:05:26.475Z,1.80
2019-05-16T03:07:52.420Z,3.93
2019-05-16T03:10:20.338Z,3.23
2019-05-16T03:12:45.676Z,2.17
2019-05-16T03:15:11.921Z,1.40
2019-05-16T03:17:40.342Z,2.83
2019-05-16T03:20:10.715Z,5.70
2019-05-16T03:22:35.808Z,2.33
2019-05-16T03:25:01.440Z,4.73
2019-05-16T03:27:30.348Z,1.67
2019-05-16T03:29:54.589Z,5.70
2019-05-16T03:32:24.168Z,3.23
2019-05-16T03:34:47.633Z,2.53
2019-05-16T03:37:14.561Z,6.07
2019-05-16T03:39:40.829Z,1.90
2019-05-16T03:42:06.455Z,3.03
2019-05-16T03:44:32.095Z,1.83
2019-05-16T03:47:00.787Z,2.77
2019-05-16T03:49:25.142Z,1.87
2019-05-16T03:51:50.739Z,1.77
2019-05-16T03:54:16.279Z,3.43
2019-05-16T03:56:41.997Z,1.83
2019-05-16T03:59:10.711Z,3.43
2019-05-16T04:01:35.308Z,4.70
2019-05-16T04:04:01.786Z,3.20
2019-05-16T04:06:30.965Z,1.67
2019-05-16T04:08:55.233Z,4.30
2019-05-16T04:11:23.154Z,9.07
2019-05-16T04:13:50.743Z,1.90
2019-05-16T04:16:16.114Z,2.70
2019-05-16T04:18:44.379Z,1.30
2019-05-16T04:21:11.714Z,2.17
2019-05-16T04:23:37.503Z,1.80
2019-05-16T04:26:03.138Z,1.50
2019-05-16T04:28:31.391Z,2.20
2019-05-16T04:30:56.316Z,2.90
2019-05-16T04:33:22.705Z,4.93
2019-05-16T04:35:51.822Z,2.20
2019-05-16T04:38:31.760Z,3.47
2019-05-16T04:40:44.248Z,2.90
2019-05-16T04:43:11.364Z,2.27
2019-05-16T04:45:37.339Z,2.33
2019-05-16T04:48:03.013Z,3.27
2019-05-16T04:50:31.132Z,1.40
2019-05-16T04:52:56.002Z,3.73
2019-05-16T04:55:22.358Z,1.50
2019-05-16T04:57:50.858Z,2.40
2019-05-16T05:00:15.421Z,2.17
2019-05-16T05:02:42.074Z,1.83
2019-05-16T05:05:08.013Z,5.70
2019-05-16T05:07:33.716Z,3.40
2019-05-16T05:10:00.512Z,1.87
2019-05-16T05:12:26.624Z,5.27
2019-05-16T05:14:52.305Z,2.13
2019-05-16T05:17:17.834Z,2.63
2019-05-16T05:19:47.015Z,2.93
2019-05-16T05:22:12.558Z,1.63
2019-05-16T05:24:40.421Z,1.77
2019-05-16T05:27:05.669Z,1.97
2019-05-16T05:29:31.193Z,3.50
2019-05-16T05:31:56.794Z,6.40
2019-05-16T05:34:22.388Z,3.20
2019-05-16T05:36:47.908Z,2.30
2019-05-16T05:39:15.629Z,3.00
2019-05-16T05:41:44.157Z,2.33
2019-05-16T05:44:14.607Z,3.33
2019-05-16T05:46:43.471Z,3.50
2019-05-16T05:49:10.556Z,7.67
2019-05-16T05:51:36.335Z,13.93
2019-05-16T05:54:03.103Z,11.20
2019-05-16T05:56:30.501Z,13.07
2019-05-16T05:58:58.281Z,6.07
2019-05-16T06:01:24.879Z,10.80
2019-05-16T06:03:50.703Z,9.80
2019-05-16T06:06:16.362Z,8.37
2019-05-16T06:08:41.926Z,12.83
2019-05-16T06:11:10.045Z,3.70
2019-05-16T06:13:35.711Z,6.60
2019-05-16T06:16:01.357Z,14.23
2019-05-16T06:18:26.960Z,5.00
2019-05-16T06:20:52.496Z,4.83
2019-05-16T06:23:20.898Z,9.93
2019-05-16T06:25:46.712Z,2.43
2019-05-16T06:28:12.301Z,1.83
2019-05-16T06:30:40.550Z,3.87
2019-05-16T06:33:05.319Z,4.70
2019-05-16T06:35:31.870Z,1.53
2019-05-16T06:38:05.429Z,3.07
2019-05-16T06:40:31.437Z,5.07
2019-05-16T06:42:57.004Z,3.00
2019-05-16T06:45:22.619Z,2.60
2019-05-16T06:47:50.187Z,6.20
2019-05-16T06:50:16.027Z,3.43
2019-05-16T06:52:41.552Z,2.10
2019-05-16T06:55:07.246Z,3.20
2019-05-16T06:57:32.890Z,1.60
2019-05-16T07:00:00.471Z,2.20
2019-05-16T07:02:30.635Z,2.63
2019-05-16T07:04:53.395Z,1.80
2019-05-16T07:07:20.508Z,4.30
2019-05-16T07:09:58.112Z,6.60
2019-05-16T07:12:13.822Z,1.93
2019-05-16T07:14:40.544Z,3.30
2019-05-16T07:17:06.529Z,6.60
2019-05-16T07:19:32.119Z,4.30
2019-05-16T07:21:59.815Z,1.50
2019-05-16T07:24:25.359Z,3.57
2019-05-16T07:26:56.561Z,2.93
2019-05-16T07:29:35.924Z,1.60
2019-05-16T07:32:07.020Z,1.60
2019-05-16T07:34:32.563Z,6.67
2019-05-16T07:37:00.335Z,3.27
2019-05-16T07:39:25.626Z,2.93
2019-05-16T07:41:51.146Z,8.77
2019-05-16T07:44:20.681Z,2.57
2019-05-16T07:46:45.868Z,4.53
2019-05-16T07:49:11.625Z,5.60
2019-05-16T07:51:40.237Z,5.40
2019-05-16T07:54:06.004Z,3.03
2019-05-16T07:56:31.593Z,11.40
2019-05-16T07:58:57.204Z,5.03
2019-05-16T08:01:22.812Z,9.63
2019-05-16T08:03:50.635Z,7.27
2019-05-16T08:06:15.975Z,12.70
2019-05-16T08:08:41.531Z,10.50
2019-05-16T08:11:07.090Z,5.07
2019-05-16T08:13:32.635Z,2.60
2019-05-16T08:16:01.101Z,7.57
2019-05-16T08:18:25.988Z,3.30
2019-05-16T08:20:52.664Z,3.43
2019-05-16T08:23:22.409Z,9.67
2019-05-16T08:25:47.053Z,7.27
2019-05-16T08:28:13.367Z,5.57
2019-05-16T08:30:41.219Z,4.80
2019-05-16T08:33:06.465Z,8.40
2019-05-16T08:35:31.991Z,6.17
2019-05-16T08:38:00.831Z,7.83
2019-05-16T08:40:24.969Z,5.33
2019-05-16T08:45:21.003Z,7.80
2019-05-16T08:47:45.653Z,11.87
2019-05-16T08:50:10.920Z,8.30
2019-05-16T08:50:14.397Z,4.90
2019-05-16T08:52:43.011Z,5.07
2019-05-16T08:55:06.911Z,3.30
2019-05-16T08:57:33.496Z,5.60
2019-05-16T09:00:01.329Z,6.23
2019-05-16T09:02:33.524Z,3.00
2019-05-16T09:04:54.288Z,4.30
2019-05-16T09:07:22.722Z,2.70
2019-05-16T09:09:51.122Z,4.20
2019-05-16T09:12:16.954Z,6.80
2019-05-16T09:14:42.280Z,3.93
2019-05-16T09:17:07.902Z,4.17
2019-05-16T09:19:33.459Z,3.23
2019-05-16T09:21:58.991Z,3.67
2019-05-16T09:24:27.218Z,2.47
2019-05-16T09:26:52.069Z,5.13
2019-05-16T09:29:17.611Z,5.60
2019-05-16T09:31:43.149Z,3.60
2019-05-16T09:34:09.052Z,3.57
2019-05-16T09:36:36.948Z,4.40
2019-05-16T09:39:04.240Z,9.17
2019-05-16T09:41:46.206Z,5.43
2019-05-16T09:43:59.254Z,3.30
2019-05-16T09:46:24.659Z,3.93
2019-05-16T09:48:50.320Z,2.67
2019-05-16T09:51:17.273Z,3.87
2019-05-16T09:53:43.287Z,3.63
2019-05-16T09:56:08.808Z,4.03
2019-05-16T09:58:34.333Z,2.13
2019-05-16T10:01:00.186Z,5.83
2019-05-16T10:03:27.047Z,7.40
2019-05-16T10:05:56.946Z,4.60
2019-05-16T10:08:21.662Z,2.97
2019-05-16T10:10:47.220Z,2.50
2019-05-16T10:13:12.783Z,3.53
2019-05-16T10:15:38.400Z,1.97
2019-05-16T10:18:04.027Z,2.97
2019-05-16T10:20:29.824Z,3.90
2019-05-16T10:22:57.999Z,3.87
2019-05-16T10:25:37.745Z,3.00
2019-05-16T10:28:03.491Z,3.37
2019-05-16T10:30:29.123Z,3.43
2019-05-16T10:32:54.660Z,4.90
2019-05-16T10:35:20.364Z,2.83
2019-05-16T10:37:46.980Z,2.87
2019-05-16T10:40:13.689Z,2.40
2019-05-16T10:42:39.227Z,5.93
2019-05-16T10:45:08.332Z,3.00
2019-05-16T10:47:33.171Z,3.33
2019-05-16T10:49:58.737Z,5.07
2019-05-16T10:52:26.410Z,3.27
2019-05-16T10:54:57.489Z,5.03
2019-05-16T10:57:19.602Z,7.00
2019-05-16T11:00:05.290Z,6.80
2019-05-16T11:02:12.760Z,5.93
2019-05-16T11:04:53.767Z,4.00
2019-05-16T11:07:05.811Z,5.70
2019-05-16T11:09:31.715Z,4.40
2019-05-16T11:11:57.245Z,3.60
2019-05-16T11:14:22.775Z,7.80
2019-05-16T11:16:48.315Z,5.57
2019-05-16T11:19:20.289Z,5.53
2019-05-16T11:21:41.508Z,6.63
2019-05-16T11:24:12.963Z,6.17
2019-05-16T11:26:36.631Z,8.17
2019-05-16T11:29:02.017Z,7.30
2019-05-16T11:31:27.629Z,9.60
2019-05-16T11:33:53.216Z,5.67
2019-05-16T11:36:18.728Z,8.53
2019-05-16T11:38:47.263Z,8.10
2019-05-16T11:41:11.696Z,4.63
2019-05-16T11:43:37.347Z,10.10
2019-05-16T11:46:02.963Z,4.27
2019-05-16T11:48:29.556Z,7.70
2019-05-16T11:50:56.926Z,7.57
2019-05-16T11:53:22.646Z,10.10
2019-05-16T11:55:55.576Z,7.17
2019-05-16T11:58:22.947Z,5.13
2019-05-16T12:00:49.096Z,6.57
2019-05-16T12:03:16.908Z,8.83
2019-05-16T12:05:42.086Z,7.87
2019-05-16T12:08:08.059Z,5.23
2019-05-16T12:10:33.667Z,4.77
2019-05-16T12:12:59.295Z,7.53
2019-05-16T12:15:27.172Z,6.53
2019-05-16T12:18:00.724Z,7.50
2019-05-16T12:20:19.847Z,5.90
2019-05-16T12:22:46.095Z,4.97
2019-05-16T12:25:11.639Z,5.17
2019-05-16T12:27:42.259Z,11.70
2019-05-16T12:30:12.898Z,9.40
2019-05-16T12:32:34.168Z,8.90
2019-05-16T12:34:59.781Z,4.43
2019-05-16T12:37:27.611Z,9.90
2019-05-16T12:39:52.831Z,6.53
2019-05-16T12:42:18.443Z,5.87
2019-05-16T12:44:46.743Z,6.97
2019-05-16T12:47:11.929Z,9.20
2019-05-16T12:49:37.431Z,8.80
2019-05-16T12:52:03.032Z,5.97
2019-05-16T12:54:29.671Z,5.90
2019-05-16T12:56:58.105Z,6.63
2019-05-16T12:59:22.815Z,4.60
2019-05-16T13:01:48.373Z,9.73
2019-05-16T13:04:14.033Z,4.70
2019-05-16T13:06:39.541Z,7.30
2019-05-16T13:09:06.987Z,5.10
2019-05-16T13:11:32.844Z,10.70
2019-05-16T13:14:05.793Z,5.67
2019-05-16T13:16:28.085Z,4.73
2019-05-16T13:18:56.576Z,6.17
2019-05-16T13:21:23.023Z,10.80
2019-05-16T13:23:48.876Z,6.23
2019-05-16T13:26:14.490Z,7.43
2019-05-16T13:28:40.231Z,6.70
2019-05-16T13:31:07.722Z,8.50
2019-05-16T13:33:33.307Z,8.00
2019-05-16T13:35:58.871Z,9.07
2019-05-16T13:38:27.645Z,7.20
2019-05-16T13:40:51.834Z,19.20
2019-05-16T13:43:17.612Z,9.10
2019-05-16T13:45:43.199Z,8.73
2019-05-16T13:48:08.750Z,6.10
2019-05-16T13:50:37.340Z,11.53
2019-05-16T13:53:03.027Z,7.97
2019-05-16T13:55:28.553Z,7.13
2019-05-16T13:57:54.095Z,3.87
2019-05-16T14:00:19.799Z,4.17
2019-05-16T14:02:45.360Z,4.70
2019-05-16T14:05:12.311Z,6.87
2019-05-16T14:07:38.014Z,8.80
2019-05-16T14:10:04.940Z,6.27
2019-05-16T14:12:30.468Z,10.73
2019-05-16T14:14:55.999Z,9.60
2019-05-16T14:17:22.035Z,6.50
2019-05-16T14:19:48.061Z,9.60
2019-05-16T14:22:13.790Z,8.00
2019-05-16T14:24:39.335Z,5.93
2019-05-16T14:27:06.630Z,6.37
2019-05-16T14:29:32.299Z,13.50
2019-05-16T14:31:57.831Z,7.10
2019-05-16T14:34:23.361Z,6.27
2019-05-16T14:36:48.983Z,9.63
2019-05-16T14:39:18.902Z,10.77
2019-05-16T14:41:42.355Z,9.20
2019-05-16T14:44:07.896Z,6.03
2019-05-16T14:46:34.556Z,10.67
2019-05-16T14:49:00.083Z,10.60
2019-05-16T14:51:31.058Z,15.93
2019-05-16T14:53:54.378Z,13.53
2019-05-16T14:56:19.967Z,12.73
2019-05-16T14:58:48.298Z,9.20
2019-05-16T15:01:14.160Z,14.13
2019-05-16T15:03:39.699Z,7.53
2019-05-16T15:06:08.087Z,10.27
2019-05-16T15:08:33.336Z,11.07
2019-05-16T15:10:58.879Z,9.80
2019-05-16T15:13:24.455Z,8.77
2019-05-16T15:15:49.992Z,8.13
2019-05-16T15:18:17.735Z,10.00
2019-05-16T15:20:43.251Z,16.33
2019-05-16T15:23:08.817Z,6.00
2019-05-16T15:25:37.451Z,8.30
2019-05-16T15:28:03.087Z,9.73
2019-05-16T15:30:28.848Z,14.70
2019-05-16T15:32:56.803Z,10.10
2019-05-16T15:35:21.990Z,14.03
2019-05-16T15:37:48.659Z,11.33
2019-05-16T15:40:14.336Z,9.70
2019-05-16T15:42:40.043Z,10.43
2019-05-16T15:45:07.086Z,17.27
2019-05-16T15:47:32.804Z,7.40
2019-05-16T15:49:59.754Z,16.63
2019-05-16T15:52:27.405Z,12.83
2019-05-16T15:54:56.085Z,13.00
2019-05-16T15:57:21.949Z,13.80
2019-05-16T15:59:47.550Z,17.57
2019-05-16T16:02:13.766Z,17.40
2019-05-16T16:04:39.374Z,11.13
2019-05-16T16:07:07.718Z,14.37
2019-05-16T16:09:32.527Z,23.83
2019-05-16T16:11:58.252Z,13.97
2019-05-16T16:14:23.888Z,17.10
2019-05-16T16:16:49.414Z,12.47
2019-05-16T16:19:17.294Z,13.53
2019-05-16T16:21:42.419Z,12.30
2019-05-16T16:24:09.105Z,16.37
2019-05-16T16:26:38.215Z,15.90
2019-05-16T16:29:03.920Z,19.20
2019-05-16T16:31:29.586Z,12.07
2019-05-16T16:33:57.274Z,13.70
2019-05-16T16:36:22.638Z,15.37
2019-05-16T16:38:49.172Z,25.77
2019-05-16T16:41:14.735Z,15.07
2019-05-16T16:43:40.287Z,14.90
2019-05-16T16:46:13.008Z,22.97
2019-05-16T16:48:33.735Z,16.50
2019-05-16T16:50:59.359Z,17.40
2019-05-16T16:53:27.011Z,17.67
2019-05-16T16:55:52.425Z,17.93
2019-05-16T16:58:17.938Z,23.53
2019-05-16T17:00:43.476Z,19.97
2019-05-16T17:03:10.733Z,21.47
2019-05-16T17:05:37.554Z,21.10
2019-05-16T17:08:04.371Z,14.17
2019-05-16T17:10:29.966Z,19.90
2019-05-16T17:12:57.655Z,23.30
2019-05-16T17:15:23.596Z,16.87
2019-05-16T17:17:49.207Z,18.77
2019-05-16T17:20:14.947Z,19.83
2019-05-16T17:22:40.923Z,13.13
2019-05-16T17:25:07.396Z,20.23
2019-05-16T17:27:34.232Z,22.67
2019-05-16T17:30:00.833Z,13.60
2019-05-16T17:32:27.416Z,17.37
2019-05-16T17:34:53.510Z,15.10
2019-05-16T17:37:19.039Z,11.77
2019-05-16T17:39:44.715Z,16.10
2019-05-16T17:42:10.519Z,22.30
2019-05-16T17:44:36.474Z,20.93
2019-05-16T17:47:02.319Z,19.50
2019-05-16T17:49:27.925Z,27.03
2019-05-16T17:51:53.524Z,21.57
2019-05-16T17:54:21.056Z,28.60
2019-05-16T17:56:49.830Z,23.90
2019-05-16T17:59:17.013Z,15.67
2019-05-16T18:01:43.028Z,23.43
2019-05-16T18:04:08.758Z,14.20
2019-05-16T18:06:36.962Z,19.50
2019-05-16T18:09:06.453Z,30.13
2019-05-16T18:11:31.772Z,24.93
2019-05-16T18:13:57.306Z,27.00
2019-05-16T18:16:22.968Z,20.60
2019-05-16T18:18:48.509Z,24.40
2019-05-16T18:21:14.111Z,23.37
2019-05-16T18:23:39.790Z,21.10
2019-05-16T18:26:07.749Z,20.93
2019-05-16T18:28:33.314Z,26.03
2019-05-16T18:30:58.904Z,15.93
2019-05-16T18:33:27.532Z,28.83
2019-05-16T18:35:54.043Z,23.57
2019-05-16T18:38:19.596Z,19.50
2019-05-16T18:40:47.311Z,20.63
2019-05-16T18:43:12.687Z,20.73
2019-05-16T18:45:38.315Z,23.47
2019-05-16T18:48:04.377Z,24.53
2019-05-16T18:50:30.863Z,17.07
2019-05-16T18:52:57.523Z,22.40
2019-05-16T18:55:23.430Z,21.17
2019-05-16T18:57:48.984Z,19.13
2019-05-16T19:00:17.585Z,22.97
2019-05-16T19:02:42.612Z,18.90
2019-05-16T19:05:11.709Z,26.87
2019-05-16T19:07:37.376Z,26.70
2019-05-16T19:10:06.671Z,17.43
2019-05-16T19:12:32.153Z,22.10
2019-05-16T19:15:00.190Z,32.50
2019-05-16T19:17:27.488Z,26.37
2019-05-16T19:19:52.702Z,26.20
2019-05-16T19:22:18.267Z,23.30
2019-05-16T19:24:43.816Z,16.13
2019-05-16T19:27:09.560Z,19.10
2019-05-16T19:29:36.873Z,25.03
2019-05-16T19:32:02.826Z,18.33
2019-05-16T19:34:28.573Z,16.97
2019-05-16T19:36:54.110Z,17.43
2019-05-16T19:39:22.618Z,27.17
2019-05-16T19:41:48.157Z,20.00
2019-05-16T19:44:13.841Z,18.33
2019-05-16T19:46:39.421Z,20.20
2019-05-16T19:49:06.430Z,20.33
2019-05-16T19:51:32.133Z,23.53
2019-05-16T19:53:57.759Z,23.73
2019-05-16T19:56:23.502Z,20.07
2019-05-16T19:58:49.127Z,14.03
2019-05-16T20:01:16.701Z,15.90
2019-05-16T20:03:42.544Z,11.90
2019-05-16T20:06:08.277Z,15.97
2019-05-16T20:08:33.864Z,10.17
2019-05-16T20:11:00.468Z,11.77
2019-05-16T20:13:27.494Z,9.80
2019-05-16T20:15:53.348Z,13.50
2019-05-16T20:18:19.024Z,14.73
2019-05-16T20:20:44.610Z,12.23
2019-05-16T20:23:10.380Z,14.97
2019-05-16T20:25:36.666Z,15.20
2019-05-16T20:28:02.376Z,16.53
2019-05-16T20:30:27.973Z,16.87
2019-05-16T20:32:54.112Z,19.50
2019-05-16T20:35:19.812Z,12.00
2019-05-16T20:37:47.257Z,23.07
2019-05-16T20:40:13.038Z,12.80
2019-05-16T20:42:38.615Z,20.20
2019-05-16T20:45:07.977Z,22.80
2019-05-16T20:47:33.921Z,14.53
2019-05-16T20:49:59.489Z,14.70
2019-05-16T20:52:26.904Z,20.87
2019-05-16T20:54:52.844Z,18.37
2019-05-16T20:57:18.375Z,13.00
2019-05-16T20:59:43.984Z,22.47
2019-05-16T21:02:09.760Z,17.20
2019-05-16T21:04:37.450Z,21.60
2019-05-16T21:07:09.961Z,18.00
2019-05-16T21:09:30.393Z,16.33
2019-05-16T21:11:56.968Z,18.00
2019-05-16T21:14:22.851Z,19.03
2019-05-16T21:16:49.592Z,21.73
2019-05-16T21:19:16.345Z,15.67
2019-05-16T21:21:42.009Z,23.53
2019-05-16T21:24:08.731Z,25.53
2019-05-16T21:26:34.259Z,21.10
2019-05-16T21:29:01.717Z,29.33
2019-05-16T21:31:27.664Z,17.90
2019-05-16T21:33:53.263Z,14.53
2019-05-16T21:36:19.048Z,22.13
2019-05-16T21:38:46.789Z,20.00
2019-05-16T21:41:12.384Z,24.10
2019-05-16T21:43:38.038Z,18.80
2019-05-16T21:46:03.589Z,21.77
2019-05-16T21:48:29.149Z,24.20
2019-05-16T21:50:57.033Z,24.60
2019-05-16T21:53:22.871Z,16.57
2019-05-16T21:55:48.539Z,18.37
2019-05-16T21:58:14.273Z,19.60
2019-05-16T22:00:43.245Z,16.00
2019-05-16T22:03:09.310Z,18.63
2019-05-16T22:05:36.859Z,18.63
2019-05-16T22:08:02.331Z,20.33
2019-05-16T22:10:28.024Z,18.23
2019-05-16T22:12:57.058Z,21.40
2019-05-16T22:15:23.041Z,25.03
2019-05-16T22:17:48.618Z,24.03
2019-05-16T22:20:16.379Z,20.20
2019-05-16T22:22:41.805Z,21.23
2019-05-16T22:25:07.808Z,22.07
2019-05-16T22:27:33.727Z,27.60
2019-05-16T22:29:59.273Z,19.87
2019-05-16T22:32:27.047Z,24.13
2019-05-16T22:34:52.278Z,20.20
2019-05-16T22:37:17.883Z,17.53
2019-05-16T22:39:43.464Z,24.17
2019-05-16T22:42:09.469Z,22.33
2019-05-16T22:44:37.172Z,27.23
2019-05-16T22:47:02.985Z,21.40
2019-05-16T22:49:28.702Z,15.60
2019-05-16T22:51:54.245Z,25.77
2019-05-16T22:54:19.814Z,19.53
2019-05-16T22:56:46.492Z,22.67
2019-05-16T22:59:12.389Z,20.47
2019-05-16T23:01:39.035Z,19.60
2019-05-16T23:04:04.631Z,25.00
2019-05-16T23:06:30.245Z,25.23
2019-05-16T23:08:56.324Z,22.00
2019-05-16T23:11:21.950Z,20.17
2019-05-16T23:13:47.995Z,33.73
2019-05-16T23:16:13.851Z,23.27
2019-05-16T23:18:39.453Z,22.70
2019-05-16T23:21:06.358Z,24.67
2019-05-16T23:23:32.215Z,28.30
2019-05-16T23:25:57.748Z,23.47
2019-05-16T23:28:23.396Z,28.33
2019-05-16T23:30:50.140Z,28.83
2019-05-16T23:33:15.664Z,27.00
2019-05-16T23:35:42.024Z,25.83
2019-05-16T23:38:18.558Z,25.73
2019-05-16T23:40:37.390Z,22.47
2019-05-16T23:43:03.444Z,19.10
2019-05-16T23:45:28.971Z,21.30
2019-05-16T23:47:56.410Z,28.90
2019-05-16T23:50:21.966Z,20.07
2019-05-16T23:52:47.483Z,22.73
2019-05-16T23:55:17.419Z,29.67
2019-05-16T23:57:42.539Z,20.30
